Time;durP1;ratioP1;P1;durP2;ratioP2;P2;SDS_P1;SDS_P2;PMS_P1;PMS_P2;Temp;Humidity;BMP_temperature;BMP_pressure;BME280_temperature;BME280_humidity;BME280_pressure;Samples;Min_cycle;Max_cycle;Signal;HPM_P1;HPM_P2
2024/01/27 00:01:34;;;;;;;26.50;8.77;;;;;;;1.08;100.00;103430.25;4980317;28;20069;-82
2024/01/27 00:03:59;;;;;;;23.85;8.30;;;;;;;1.07;100.00;103429.38;4988079;28;20072;-84
2024/01/27 00:06:24;;;;;;;26.60;8.88;;;;;;;1.09;100.00;103425.06;4992034;28;20806;-84
2024/01/27 00:08:50;;;;;;;22.63;8.70;;;;;;;1.09;100.00;103426.81;4994261;28;20109;-84
2024/01/27 00:11:15;;;;;;;25.30;9.95;;;;;;;1.06;100.00;103424.19;4991481;28;20023;-84
2024/01/27 00:13:42;;;;;;;29.92;10.30;;;;;;;1.08;100.00;103414.69;4980447;28;20097;-84
2024/01/27 00:16:08;;;;;;;30.10;11.70;;;;;;;1.07;100.00;103411.22;4991801;28;20034;-81
2024/01/27 00:18:36;;;;;;;27.00;11.20;;;;;;;1.02;100.00;103412.94;4999013;28;20026;-82
2024/01/27 00:21:02;;;;;;;32.67;11.23;;;;;;;0.99;100.00;103406.88;4994616;28;20478;-79
2024/01/27 00:23:27;;;;;;;27.23;10.75;;;;;;;1.01;100.00;103403.41;4997266;28;20093;-80
2024/01/27 00:25:52;;;;;;;27.38;11.60;;;;;;;0.96;100.00;103405.13;4992982;28;20030;-80
2024/01/27 00:28:18;;;;;;;25.73;10.82;;;;;;;0.93;100.00;103402.50;4995208;28;20052;-80
2024/01/27 00:30:43;;;;;;;25.17;10.10;;;;;;;0.92;100.00;103408.53;4990052;28;20035;-82
2024/01/27 00:33:08;;;;;;;25.88;9.52;;;;;;;0.90;100.00;103407.66;4993055;28;20042;-80
2024/01/27 00:35:34;;;;;;;24.15;9.50;;;;;;;0.87;100.00;103420.59;4995743;28;20060;-81
2024/01/27 00:37:59;;;;;;;28.50;9.05;;;;;;;0.90;100.00;103426.69;4992126;28;20027;-81
2024/01/27 00:40:24;;;;;;;26.50;9.77;;;;;;;0.90;100.00;103433.59;4987506;28;20023;-81
2024/01/27 00:42:50;;;;;;;29.25;9.32;;;;;;;0.87;100.00;103433.56;4997917;28;20034;-81
2024/01/27 00:45:15;;;;;;;24.08;9.18;;;;;;;0.82;100.00;103436.13;4994995;28;20421;-82
2024/01/27 00:47:41;;;;;;;23.30;9.30;;;;;;;0.81;100.00;103436.13;4992886;28;20037;-80
2024/01/27 00:50:08;;;;;;;23.05;9.43;;;;;;;0.78;100.00;103438.66;4993219;28;20030;-81
2024/01/27 00:52:34;;;;;;;23.35;9.32;;;;;;;0.77;100.00;103436.91;4991513;28;20035;-81
2024/01/27 00:54:59;;;;;;;28.13;9.55;;;;;;;0.79;100.00;103430.03;4970657;28;20032;-80
2024/01/27 00:57:25;;;;;;;25.98;10.07;;;;;;;0.75;100.00;103429.13;4992349;28;20105;-83
2024/01/27 00:59:50;;;;;;;29.02;9.85;;;;;;;0.75;100.00;103436.03;4989427;28;20065;-83
2024/01/27 01:02:15;;;;;;;30.17;10.23;;;;;;;0.76;100.00;103427.41;4988612;28;20030;-82
2024/01/27 01:04:42;;;;;;;23.90;9.70;;;;;;;0.72;100.00;103434.28;4981389;28;20446;-83
2024/01/27 01:07:08;;;;;;;29.42;10.27;;;;;;;0.74;100.00;103431.72;4986887;28;20334;-84
2024/01/27 01:09:33;;;;;;;23.25;9.95;;;;;;;0.75;100.00;103433.44;4993812;28;20038;-83
2024/01/27 01:11:59;;;;;;;32.42;11.25;;;;;;;0.73;100.00;103445.53;4986745;28;20033;-83
2024/01/27 01:14:24;;;;;;;25.30;10.32;;;;;;;0.70;100.00;103448.09;4993059;28;20041;-82
2024/01/27 01:16:50;;;;;;;29.08;10.63;;;;;;;0.71;100.00;103442.91;4992963;28;20022;-83
2024/01/27 01:19:15;;;;;;;25.70;10.02;;;;;;;0.72;100.00;103436.00;4975938;28;20033;-82
2024/01/27 01:21:40;;;;;;;24.13;10.23;;;;;;;0.67;100.00;103441.16;4992818;28;20376;-84
2024/01/27 01:24:06;;;;;;;25.60;10.65;;;;;;;0.65;100.00;103444.59;4991717;28;20037;-82
2024/01/27 01:26:31;;;;;;;30.67;10.65;;;;;;;0.66;100.00;103442.00;4991574;28;20042;-83
2024/01/27 01:28:56;;;;;;;24.67;10.45;;;;;;;0.69;100.00;103433.41;4992147;28;20030;-84
2024/01/27 01:31:22;;;;;;;28.98;10.50;;;;;;;0.65;100.00;103432.50;4991840;28;20128;-82
2024/01/27 01:33:47;;;;;;;27.77;10.77;;;;;;;0.69;100.00;103438.56;4975791;28;20041;-82
2024/01/27 01:36:13;;;;;;;28.88;10.32;;;;;;;0.68;100.00;103439.44;4992818;28;20073;-83
2024/01/27 01:38:38;;;;;;;30.38;11.65;;;;;;;0.67;100.00;103433.38;4992433;28;20014;-83
2024/01/27 01:41:04;;;;;;;24.45;10.52;;;;;;;0.63;100.00;103435.09;4990142;28;20073;-81
2024/01/27 01:43:29;;;;;;;31.23;10.20;;;;;;;0.66;100.00;103438.56;4962399;28;20023;-83
2024/01/27 01:45:55;;;;;;;30.25;10.85;;;;;;;0.63;100.00;103434.22;4983914;28;20086;-82
2024/01/27 01:48:20;;;;;;;30.13;11.40;;;;;;;0.60;100.00;103440.25;4992166;28;20022;-80
2024/01/27 01:50:50;;;;;;;31.02;10.88;;;;;;;0.57;100.00;103445.38;4989974;28;20085;-84
2024/01/27 01:53:15;;;;;;;30.63;10.75;;;;;;;0.57;100.00;103445.38;4987301;28;20169;-81
2024/01/27 01:55:41;;;;;;;22.35;9.90;;;;;;;0.55;100.00;103444.50;4988921;28;20109;-82
2024/01/27 01:58:06;;;;;;;27.48;11.13;;;;;;;0.52;100.00;103449.66;5004896;28;20064;-80
2024/01/27 02:00:32;;;;;;;26.58;11.13;;;;;;;0.52;100.00;103452.25;4990740;28;20026;-81
2024/01/27 02:02:58;;;;;;;25.98;10.32;;;;;;;0.49;100.00;103447.03;4980616;28;20034;-83
2024/01/27 02:05:24;;;;;;;24.95;11.15;;;;;;;0.46;100.00;103441.84;4987423;28;20367;-84
2024/01/27 02:07:50;;;;;;;25.10;10.48;;;;;;;0.49;100.00;103444.47;4983926;28;20027;-83
2024/01/27 02:10:16;;;;;;;23.98;10.93;;;;;;;0.45;100.00;103440.09;4989731;28;20498;-83
2024/01/27 02:12:44;;;;;;;28.38;11.27;;;;;;;0.44;100.00;103442.69;4990613;28;20106;-84
2024/01/27 02:15:12;;;;;;;25.98;10.77;;;;;;;0.45;100.00;103447.88;4971776;28;20117;-84
2024/01/27 02:17:38;;;;;;;34.47;10.68;;;;;;;0.48;100.00;103447.03;4988179;28;20122;-82
2024/01/27 02:20:05;;;;;;;26.50;11.98;;;;;;;0.47;100.00;103448.75;4985382;28;20129;-81
2024/01/27 02:22:30;;;;;;;26.30;11.05;;;;;;;0.48;100.00;103455.66;4986873;28;20021;-83
2024/01/27 02:24:56;;;;;;;24.95;10.98;;;;;;;0.44;100.00;103451.31;4984942;28;20030;-83
2024/01/27 02:27:21;;;;;;;25.73;11.15;;;;;;;0.43;100.00;103449.59;4985744;28;20406;-83
2024/01/27 02:29:50;;;;;;;32.00;11.25;;;;;;;0.38;100.00;103459.00;4989087;28;20525;-80
2024/01/27 02:32:16;;;;;;;26.05;11.75;;;;;;;0.41;100.00;103463.38;4982936;28;20105;-82
2024/01/27 02:34:41;;;;;;;24.35;10.65;;;;;;;0.42;100.00;103460.78;4989968;28;20042;-81
2024/01/27 02:37:06;;;;;;;29.27;11.48;;;;;;;0.42;100.00;103453.03;4990962;28;20574;-83
2024/01/27 02:39:32;;;;;;;27.27;11.25;;;;;;;0.42;100.00;103452.16;4989619;28;20079;-83
2024/01/27 02:41:58;;;;;;;24.42;11.02;;;;;;;0.49;100.00;103464.31;4991235;28;20022;-83
2024/01/27 02:44:25;;;;;;;26.15;11.45;;;;;;;0.43;100.00;103452.16;4990748;28;20026;-83
2024/01/27 02:46:50;;;;;;;28.02;11.32;;;;;;;0.40;100.00;103446.06;4991081;28;20034;-84
2024/01/27 02:49:16;;;;;;;25.42;10.43;;;;;;;0.39;100.00;103445.19;4991395;28;20026;-83
2024/01/27 02:51:41;;;;;;;28.70;10.98;;;;;;;0.40;100.00;103459.91;4990218;28;20050;-84
2024/01/27 02:54:06;;;;;;;25.60;10.90;;;;;;;0.37;100.00;103457.25;4991507;28;20030;-83
2024/01/27 02:56:33;;;;;;;26.60;10.52;;;;;;;0.35;100.00;103447.75;4989330;28;20115;-83
2024/01/27 02:58:58;;;;;;;27.80;11.20;;;;;;;0.36;100.00;103452.94;4969201;28;20116;-82
2024/01/27 03:01:24;;;;;;;26.23;10.93;;;;;;;0.34;100.00;103457.22;4990108;28;20049;-82
2024/01/27 03:03:53;;;;;;;30.58;11.38;;;;;;;0.34;100.00;103452.06;4988843;28;20401;-82
2024/01/27 03:06:18;;;;;;;25.77;10.80;;;;;;;0.33;100.00;103445.13;4986812;28;20368;-82
2024/01/27 03:08:44;;;;;;;28.30;11.30;;;;;;;0.30;100.00;103453.75;4990505;28;20117;-82
2024/01/27 03:11:09;;;;;;;26.65;10.77;;;;;;;0.27;100.00;103455.44;4971637;28;21901;-82
2024/01/27 03:13:34;;;;;;;29.90;11.50;;;;;;;0.28;100.00;103452.00;4988216;28;20065;-81
2024/01/27 03:16:00;;;;;;;28.42;10.98;;;;;;;0.29;100.00;103461.50;4989170;28;20049;-82
2024/01/27 03:18:25;;;;;;;26.92;10.88;;;;;;;0.23;100.00;103451.06;4990016;28;20033;-80
2024/01/27 03:20:51;;;;;;;25.05;10.32;;;;;;;0.25;100.00;103462.31;4970176;28;20445;-80
2024/01/27 03:23:16;;;;;;;23.10;10.27;;;;;;;0.21;100.00;103460.53;4971069;28;20037;-82
2024/01/27 03:25:41;;;;;;;21.15;10.57;;;;;;;0.19;100.00;103457.06;4982648;28;20026;-82
2024/01/27 03:28:07;;;;;;;31.42;10.52;;;;;;;0.21;100.00;103463.13;4983675;28;20471;-82
2024/01/27 03:30:33;;;;;;;24.38;11.20;;;;;;;0.20;100.00;103469.16;4983843;28;20069;-80
2024/01/27 03:32:58;;;;;;;25.85;11.10;;;;;;;0.15;100.00;103460.47;4988756;28;20454;-80
2024/01/27 03:35:24;;;;;;;27.00;10.82;;;;;;;0.16;100.00;103459.63;4984909;28;20097;-82
2024/01/27 03:37:51;;;;;;;22.30;10.70;;;;;;;0.15;100.00;103463.06;4986653;28;20035;-80
2024/01/27 03:40:18;;;;;;;26.40;10.95;;;;;;;0.16;100.00;103472.56;4987896;28;20034;-83
2024/01/27 03:42:43;;;;;;;22.55;10.98;;;;;;;0.10;100.00;103462.16;4988472;28;20026;-82
2024/01/27 03:45:09;;;;;;;31.55;11.23;;;;;;;0.17;100.00;103467.41;4986475;28;20101;-83
2024/01/27 03:47:35;;;;;;;27.48;11.20;;;;;;;0.12;100.00;103465.63;4987865;28;20030;-83
2024/01/27 03:50:00;;;;;;;25.38;11.45;;;;;;;0.14;100.00;103466.50;4986791;28;20031;-82
2024/01/27 03:52:26;;;;;;;27.60;10.93;;;;;;;0.09;100.00;103456.09;4989455;28;20030;-82
2024/01/27 03:54:51;;;;;;;25.58;10.68;;;;;;;0.07;100.00;103462.13;4987569;28;20037;-82
2024/01/27 03:57:17;;;;;;;26.85;10.98;;;;;;;0.09;100.00;103465.59;4986365;28;20031;-82
2024/01/27 03:59:42;;;;;;;32.75;11.25;;;;;;;0.03;100.00;103458.63;4989605;28;20165;-82
2024/01/27 04:02:08;;;;;;;24.83;10.02;;;;;;;0.04;100.00;103467.25;4968596;28;20094;-83
2024/01/27 04:04:33;;;;;;;22.52;10.52;;;;;;;0.02;100.00;103464.66;4989022;28;20031;-83
2024/01/27 04:06:58;;;;;;;22.42;10.57;;;;;;;0.03;100.00;103468.13;4982387;28;20026;-83
2024/01/27 04:09:24;;;;;;;21.02;10.18;;;;;;;0.00;100.00;103468.94;4986584;28;20469;-83
2024/01/27 04:11:49;;;;;;;26.23;10.55;;;;;;;-0.05;100.00;103468.00;4986078;28;20041;-83
2024/01/27 04:14:14;;;;;;;24.60;9.75;;;;;;;-0.04;100.00;103469.72;4988284;28;20487;-83
2024/01/27 04:16:40;;;;;;;23.55;10.02;;;;;;;-0.05;100.00;103476.63;4985400;28;20029;-83
2024/01/27 04:19:05;;;;;;;24.75;10.48;;;;;;;-0.04;100.00;103475.78;4985317;28;20076;-83
2024/01/27 04:21:30;;;;;;;24.80;10.30;;;;;;;-0.09;100.00;103482.63;4971103;28;20058;-83
2024/01/27 04:23:56;;;;;;;26.35;9.93;;;;;;;-0.05;100.00;103473.16;4969393;28;20065;-83
2024/01/27 04:26:21;;;;;;;26.40;10.75;;;;;;;-0.04;100.00;103470.59;4986562;28;20509;-83
2024/01/27 04:28:46;;;;;;;25.65;10.98;;;;;;;-0.06;100.00;103479.19;4984178;28;20065;-81
2024/01/27 04:31:12;;;;;;;26.90;10.60;;;;;;;-0.08;100.00;103481.75;4984058;28;20394;-83
2024/01/27 04:33:37;;;;;;;20.70;10.57;;;;;;;-0.04;100.00;103474.91;4988749;28;20047;-83
2024/01/27 04:36:03;;;;;;;21.75;10.55;;;;;;;-0.08;100.00;103470.56;4987060;28;20431;-84
2024/01/27 04:38:28;;;;;;;23.83;10.45;;;;;;;-0.11;100.00;103473.97;4988368;28;20042;-84
2024/01/27 04:40:53;;;;;;;27.30;10.43;;;;;;;-0.16;100.00;103467.00;4970158;28;20053;-83
2024/01/27 04:43:20;;;;;;;22.42;10.73;;;;;;;-0.17;100.00;103479.06;4970162;28;20018;-83
2024/01/27 04:45:50;;;;;;;29.85;10.98;;;;;;;-0.22;100.00;103485.91;4988492;28;20022;-82
2024/01/27 04:48:15;;;;;;;24.58;10.93;;;;;;;-0.19;100.00;103485.94;4972614;28;20029;-82
2024/01/27 04:50:41;;;;;;;22.27;10.85;;;;;;;-0.24;100.00;103484.16;4975127;28;20034;-81
2024/01/27 04:53:06;;;;;;;24.10;10.60;;;;;;;-0.23;100.00;103479.00;4986252;28;20407;-81
2024/01/27 04:55:32;;;;;;;21.17;10.85;;;;;;;-0.25;100.00;103479.81;4960456;28;20027;-82
2024/01/27 04:57:58;;;;;;;31.00;11.38;;;;;;;-0.25;100.00;103474.66;4964134;28;20606;-83
2024/01/27 05:00:26;;;;;;;25.92;11.43;;;;;;;-0.29;100.00;103476.34;4986249;28;20026;-83
2024/01/27 05:02:51;;;;;;;23.40;11.50;;;;;;;-0.29;100.00;103478.06;4968985;28;20017;-82
2024/01/27 05:05:17;;;;;;;23.30;11.13;;;;;;;-0.31;100.00;103467.69;4990262;28;20434;-82
2024/01/27 05:07:42;;;;;;;33.15;12.05;;;;;;;-0.33;100.00;103474.56;4989569;28;20026;-82
2024/01/27 05:10:10;;;;;;;26.60;11.43;;;;;;;-0.32;100.00;103481.47;4962864;28;20475;-83
2024/01/27 05:12:36;;;;;;;23.73;11.73;;;;;;;-0.30;100.00;103473.72;4984448;28;20026;-82
2024/01/27 05:15:01;;;;;;;27.02;12.32;;;;;;;-0.30;100.00;103482.34;4985010;28;20034;-82
2024/01/27 05:17:26;;;;;;;27.33;13.07;;;;;;;-0.29;100.00;103468.56;4988115;28;20030;-84
2024/01/27 05:19:52;;;;;;;26.23;12.43;;;;;;;-0.23;100.00;103478.13;4990302;28;20018;-81
2024/01/27 05:22:17;;;;;;;24.02;12.07;;;;;;;-0.28;100.00;103485.81;4988928;28;20478;-83
2024/01/27 05:24:44;;;;;;;27.85;12.73;;;;;;;-0.32;100.00;103489.22;4991296;28;20260;-83
2024/01/27 05:27:09;;;;;;;28.70;12.88;;;;;;;-0.31;100.00;103478.03;4989628;28;20037;-83
2024/01/27 05:29:37;;;;;;;29.17;13.27;;;;;;;-0.34;100.00;103484.03;4992759;28;20546;-83
2024/01/27 05:32:02;;;;;;;26.73;12.77;;;;;;;-0.33;100.00;103479.72;4988867;28;20126;-81
2024/01/27 05:34:28;;;;;;;27.88;13.13;;;;;;;-0.31;100.00;103475.44;4987824;28;20117;-83
2024/01/27 05:36:53;;;;;;;25.77;13.13;;;;;;;-0.31;100.00;103480.63;4985001;28;20030;-83
2024/01/27 05:39:19;;;;;;;26.13;13.02;;;;;;;-0.36;100.00;103465.03;4979266;28;20089;-82
2024/01/27 05:41:44;;;;;;;22.80;12.63;;;;;;;-0.39;100.00;103465.00;4989007;28;20061;-81
2024/01/27 05:44:09;;;;;;;23.63;12.25;;;;;;;-0.34;100.00;103459.88;4986986;28;20076;-81
2024/01/27 05:46:35;;;;;;;29.42;14.20;;;;;;;-0.29;100.00;103458.22;4988161;28;20061;-81
2024/01/27 05:49:03;;;;;;;25.88;13.05;;;;;;;-0.32;100.00;103460.78;4971936;28;20027;-82
2024/01/27 05:51:33;;;;;;;29.40;13.05;;;;;;;-0.34;100.00;103457.31;4980023;28;20030;-82
2024/01/27 05:54:00;;;;;;;30.08;13.88;;;;;;;-0.36;100.00;103456.41;4985332;28;20491;-82
2024/01/27 05:56:25;;;;;;;26.42;12.98;;;;;;;-0.40;100.00;103458.09;4988650;28;20030;-82
2024/01/27 05:58:51;;;;;;;25.67;13.30;;;;;;;-0.37;100.00;103454.69;4973252;28;20065;-82
2024/01/27 06:01:20;;;;;;;31.33;13.38;;;;;;;-0.41;100.00;103465.78;4990750;28;20037;-82
2024/01/27 06:03:49;;;;;;;29.17;14.10;;;;;;;-0.43;100.00;103475.25;4991550;28;20482;-82
2024/01/27 06:06:15;;;;;;;26.52;13.70;;;;;;;-0.39;100.00;103462.41;4991431;28;20157;-82
2024/01/27 06:08:41;;;;;;;27.20;14.13;;;;;;;-0.39;100.00;103462.41;4991702;28;20109;-82
2024/01/27 06:11:06;;;;;;;28.55;13.75;;;;;;;-0.44;100.00;103455.41;4991028;28;20483;-81
2024/01/27 06:13:35;;;;;;;25.90;13.90;;;;;;;-0.43;100.00;103457.16;4987590;28;20154;-83
2024/01/27 06:16:00;;;;;;;27.27;13.85;;;;;;;-0.39;100.00;103456.38;4982243;28;20032;-82
2024/01/27 06:18:25;;;;;;;27.63;14.32;;;;;;;-0.45;100.00;103457.13;4991383;28;20026;-83
2024/01/27 06:20:52;;;;;;;29.83;14.48;;;;;;;-0.43;100.00;103457.16;4991850;28;20478;-83
2024/01/27 06:23:18;;;;;;;28.63;14.30;;;;;;;-0.46;100.00;103457.09;4990444;28;20072;-84
2024/01/27 06:25:43;;;;;;;30.50;14.38;;;;;;;-0.49;100.00;103449.31;4992486;28;20542;-82
2024/01/27 06:28:08;;;;;;;35.17;15.52;;;;;;;-0.48;100.00;103456.22;4971739;28;20112;-81
2024/01/27 06:30:34;;;;;;;28.92;14.73;;;;;;;-0.38;100.00;103458.09;4990342;28;20542;-83
2024/01/27 06:32:59;;;;;;;30.25;15.20;;;;;;;-0.44;100.00;103460.59;4984922;28;20380;-83
2024/01/27 06:35:24;;;;;;;28.48;14.63;;;;;;;-0.41;100.00;103452.88;4987787;28;20101;-80
2024/01/27 06:37:50;;;;;;;31.88;15.95;;;;;;;-0.44;100.00;103455.41;4973748;28;20382;-82
2024/01/27 06:40:15;;;;;;;30.77;15.10;;;;;;;-0.44;100.00;103453.69;4991258;28;20778;-82
2024/01/27 06:42:41;;;;;;;29.92;15.07;;;;;;;-0.49;100.00;103464.81;4980514;28;20089;-81
2024/01/27 06:45:06;;;;;;;29.15;14.27;;;;;;;-0.47;100.00;103463.13;4989561;28;20026;-82
2024/01/27 06:47:32;;;;;;;29.38;15.27;;;;;;;-0.43;100.00;103470.09;4982148;28;20031;-84
2024/01/27 06:49:58;;;;;;;29.27;15.35;;;;;;;-0.44;100.00;103479.56;4977398;28;20102;-84
2024/01/27 06:52:23;;;;;;;28.88;15.52;;;;;;;-0.42;100.00;103482.16;4971833;28;20027;-83
2024/01/27 06:54:48;;;;;;;29.40;15.27;;;;;;;-0.50;100.00;103479.47;4990736;28;20057;-83
2024/01/27 06:57:24;;;;;;;28.88;15.43;;;;;;;-0.48;100.00;103492.44;4990156;28;20084;-82
2024/01/27 06:59:55;;;;;;;28.67;15.13;;;;;;;-0.55;100.00;103490.59;4987952;28;20038;-80
2024/01/27 07:02:29;;;;;;;25.25;14.65;;;;;;;-0.53;100.00;103504.41;4970498;28;20513;-82
2024/01/27 07:04:57;;;;;;;32.42;16.00;;;;;;;-0.56;100.00;103500.06;4971902;28;20034;-81
2024/01/27 07:07:28;;;;;;;29.35;15.52;;;;;;;-0.54;100.00;103508.72;4990785;28;20033;-82
2024/01/27 07:09:57;;;;;;;34.00;16.75;;;;;;;-0.55;100.00;103511.28;4988926;28;20038;-81
2024/01/27 07:12:23;;;;;;;31.67;16.00;;;;;;;-0.52;100.00;103512.19;4974054;28;20026;-81
2024/01/27 07:14:48;;;;;;;29.55;15.90;;;;;;;-0.53;100.00;103499.25;4971580;28;20045;-82
2024/01/27 07:17:14;;;;;;;35.75;15.93;;;;;;;-0.55;100.00;103506.97;4989877;28;20030;-80
2024/01/27 07:19:41;;;;;;;30.95;16.02;;;;;;;-0.54;100.00;103505.28;4989462;28;20113;-82
2024/01/27 07:22:06;;;;;;;28.05;15.98;;;;;;;-0.53;100.00;103507.00;4984477;28;20128;-82
2024/01/27 07:24:32;;;;;;;28.80;15.45;;;;;;;-0.53;100.00;103512.19;4989187;28;21202;-80
2024/01/27 07:27:00;;;;;;;33.38;16.85;;;;;;;-0.55;100.00;103519.03;4989298;28;20030;-83
2024/01/27 07:29:26;;;;;;;36.33;16.40;;;;;;;-0.53;100.00;103514.75;4973095;28;20540;-83
2024/01/27 07:31:52;;;;;;;31.98;16.02;;;;;;;-0.50;100.00;103519.97;4986793;28;20054;-82
2024/01/27 07:34:19;;;;;;;37.95;16.52;;;;;;;-0.53;100.00;103509.59;4990405;28;20152;-83
2024/01/27 07:36:44;;;;;;;35.50;16.73;;;;;;;-0.48;100.00;103513.09;4990150;28;20030;-83
2024/01/27 07:39:10;;;;;;;35.63;18.02;;;;;;;-0.47;100.00;103520.03;4984420;28;20040;-83
2024/01/27 07:41:39;;;;;;;31.63;16.92;;;;;;;-0.43;100.00;103521.81;4983316;28;20031;-83
2024/01/27 07:44:12;;;;;;;34.28;17.65;;;;;;;-0.44;100.00;103509.72;4989966;28;20390;-84
2024/01/27 07:46:37;;;;;;;;;;;;;;;-0.37;100.00;103507.28;4990110;28;20039;-84
2024/01/27 07:49:03;;;;;;;36.33;17.30;;;;;;;-0.40;100.00;103515.00;4987838;28;19917;-81
2024/01/27 07:51:29;;;;;;;35.15;16.92;;;;;;;-0.37;100.00;103524.50;4983165;28;20034;-83
2024/01/27 07:53:54;;;;;;;36.13;17.63;;;;;;;-0.34;100.00;103519.38;4970383;28;20487;-83
2024/01/27 07:56:20;;;;;;;32.47;16.83;;;;;;;-0.36;100.00;103527.13;4969710;28;20029;-83
2024/01/27 07:58:45;;;;;;;35.75;16.25;;;;;;;-0.33;100.00;103518.53;4988769;28;20467;-81
2024/01/27 08:01:14;;;;;;;34.00;17.40;;;;;;;-0.28;100.00;103524.63;4981771;28;20074;-81
2024/01/27 08:03:40;;;;;;;33.90;17.48;;;;;;;-0.28;100.00;103526.34;4971158;28;20033;-82
2024/01/27 08:06:08;;;;;;;32.88;17.25;;;;;;;-0.22;100.00;103522.13;4970938;28;20109;-83
2024/01/27 08:08:34;;;;;;;30.35;17.08;;;;;;;-0.20;100.00;103507.50;4980259;28;20089;-81
2024/01/27 08:10:59;;;;;;;34.30;16.42;;;;;;;-0.17;100.00;103510.13;4986780;28;20034;-83
2024/01/27 08:13:24;;;;;;;33.70;17.05;;;;;;;-0.13;100.00;103506.72;4988590;28;20030;-82
2024/01/27 08:15:52;;;;;;;36.00;17.38;;;;;;;-0.07;100.00;103500.75;4989590;28;20041;-82
2024/01/27 08:18:18;;;;;;;34.53;17.48;;;;;;;0.01;100.00;103508.63;4989813;28;20030;-82
2024/01/27 08:20:43;;;;;;;36.30;17.52;;;;;;;0.02;100.00;103515.56;4991585;28;20084;-81
2024/01/27 08:23:09;;;;;;;35.13;17.40;;;;;;;0.07;100.00;103511.28;4990984;28;20014;-80
2024/01/27 08:25:34;;;;;;;29.08;16.42;;;;;;;0.14;100.00;103502.75;4992911;28;20158;-82
2024/01/27 08:28:00;;;;;;;32.35;16.58;;;;;;;0.20;100.00;103510.59;4991485;28;20376;-82
2024/01/27 08:30:25;;;;;;;31.70;16.65;;;;;;;0.27;100.00;103500.31;4975147;28;20398;-82
2024/01/27 08:32:50;;;;;;;30.50;16.23;;;;;;;0.31;100.00;103498.63;4992241;28;20128;-81
2024/01/27 08:35:15;;;;;;;35.60;17.13;;;;;;;0.39;100.00;103499.56;4991422;28;20062;-83
2024/01/27 08:37:41;;;;;;;36.17;16.33;;;;;;;0.40;100.00;103506.53;4992000;28;20053;-83
2024/01/27 08:40:07;;;;;;;32.83;16.45;;;;;;;0.46;100.00;103509.19;4993005;28;20361;-81
2024/01/27 08:42:33;;;;;;;29.80;16.15;;;;;;;0.48;100.00;103517.81;4991410;28;21045;-83
2024/01/27 08:44:58;;;;;;;35.28;15.63;;;;;;;0.56;100.00;103511.00;4986958;28;20027;-83
2024/01/27 08:47:23;;;;;;;34.92;15.75;;;;;;;0.61;100.00;103514.50;4985775;28;20065;-83
2024/01/27 08:49:49;;;;;;;29.33;15.75;;;;;;;0.67;100.00;103521.47;4993840;28;20109;-83
2024/01/27 08:52:14;;;;;;;32.20;15.23;;;;;;;0.74;100.00;103522.38;4992768;28;20026;-83
2024/01/27 08:54:40;;;;;;;30.48;15.85;;;;;;;0.79;100.00;103518.13;4988468;28;20027;-83
2024/01/27 08:57:06;;;;;;;33.05;15.35;;;;;;;0.82;100.00;103524.22;4972063;28;20488;-83
2024/01/27 08:59:31;;;;;;;31.52;15.07;;;;;;;0.90;100.00;103527.75;4985920;28;20030;-83
2024/01/27 09:01:57;;;;;;;30.98;14.20;;;;;;;0.96;100.00;103526.06;4992165;28;20150;-83
2024/01/27 09:04:22;;;;;;;31.63;15.07;;;;;;;1.00;100.00;103527.84;4986785;28;20054;-83
2024/01/27 09:06:50;;;;;;;39.92;14.98;;;;;;;1.03;100.00;103533.91;4981825;28;20069;-83
2024/01/27 09:09:15;;;;;;;30.85;14.88;;;;;;;1.07;100.00;103533.06;4994108;28;20360;-81
2024/01/27 09:11:40;;;;;;;33.75;14.00;;;;;;;1.17;100.00;103528.84;4972645;28;20057;-81
2024/01/27 09:14:07;;;;;;;32.88;14.85;;;;;;;1.22;100.00;103528.03;4974824;28;20023;-83
2024/01/27 09:16:32;;;;;;;31.50;14.25;;;;;;;1.28;100.00;103528.94;4974581;28;20526;-83
2024/01/27 09:18:57;;;;;;;29.35;13.93;;;;;;;1.36;100.00;103532.47;4991409;28;20030;-83
2024/01/27 09:21:28;;;;;;;30.60;14.20;;;;;;;1.45;100.00;103538.56;4992499;28;20026;-83
2024/01/27 09:23:54;;;;;;;34.17;14.43;;;;;;;1.52;100.00;103542.06;4992429;28;20033;-81
2024/01/27 09:26:19;;;;;;;30.40;13.52;;;;;;;1.59;100.00;103543.84;4973471;28;20162;-81
2024/01/27 09:28:47;;;;;;;30.42;13.60;;;;;;;1.66;100.00;103537.00;4992676;28;20047;-81
2024/01/27 09:31:13;;;;;;;32.65;14.18;;;;;;;1.73;100.00;103544.81;4988879;28;20061;-83
2024/01/27 09:33:38;;;;;;;30.38;13.15;;;;;;;1.77;100.00;103546.56;4989840;28;20018;-83
2024/01/27 09:36:04;;;;;;;27.55;13.20;;;;;;;1.87;100.00;103558.75;4992357;28;20022;-81
2024/01/27 09:38:29;;;;;;;34.15;13.02;;;;;;;1.92;100.00;103568.28;4991009;28;20030;-81
2024/01/27 09:40:55;;;;;;;28.48;13.48;;;;;;;1.94;100.00;103569.16;4990365;28;20125;-81
2024/01/27 09:43:21;;;;;;;29.83;12.70;;;;;;;2.00;100.00;103569.19;4994453;28;20053;-83
2024/01/27 09:45:47;;;;;;;32.78;12.65;;;;;;;2.07;100.00;103570.97;4991841;28;20026;-83
2024/01/27 09:48:12;;;;;;;28.20;12.85;;;;;;;2.17;100.00;103573.63;4988523;28;20030;-83
2024/01/27 09:50:41;;;;;;;30.55;12.98;;;;;;;2.25;100.00;103571.06;4989601;28;20034;-83
2024/01/27 09:53:08;;;;;;;27.83;12.43;;;;;;;2.28;100.00;103568.47;4990354;28;20026;-82
2024/01/27 09:55:33;;;;;;;27.75;12.63;;;;;;;2.35;100.00;103571.97;4988378;28;20039;-81
2024/01/27 09:58:00;;;;;;;29.13;12.45;;;;;;;2.45;100.00;103586.75;4989739;28;20057;-81
2024/01/27 10:00:26;;;;;;;22.98;12.25;;;;;;;2.48;100.00;103584.16;4973496;28;20502;-82
2024/01/27 10:02:54;;;;;;;30.85;12.02;;;;;;;2.57;100.00;103585.91;4965248;28;20049;-79
2024/01/27 10:05:20;;;;;;;29.77;12.48;;;;;;;2.62;100.00;103586.78;5001942;28;20029;-83
2024/01/27 10:07:45;;;;;;;38.60;13.35;;;;;;;2.74;100.00;103586.81;4989788;28;20026;-80
2024/01/27 10:10:11;;;;;;;29.60;12.05;;;;;;;2.77;100.00;103579.91;4987201;28;20490;-81
2024/01/27 10:12:42;;;;;;;28.95;11.70;;;;;;;2.87;100.00;103586.00;4990936;28;20041;-83
2024/01/27 10:15:19;;;;;;;27.05;11.88;;;;;;;2.87;100.00;103587.75;4988934;28;20045;-84
2024/01/27 10:17:45;;;;;;;26.17;11.57;;;;;;;2.93;100.00;103588.63;4991686;28;20030;-84
2024/01/27 10:20:15;;;;;;;26.05;11.60;;;;;;;3.01;100.00;103592.09;4976470;28;20036;-84
2024/01/27 10:22:41;;;;;;;26.48;11.38;;;;;;;3.09;100.00;103595.56;5011084;28;20371;-83
2024/01/27 10:25:08;;;;;;;27.23;11.27;;;;;;;3.15;100.00;103595.56;5003917;28;20313;-83
2024/01/27 10:27:34;;;;;;;28.08;11.20;;;;;;;3.25;100.00;103590.41;4990988;28;20026;-82
2024/01/27 10:29:59;;;;;;;36.63;12.23;;;;;;;3.31;100.00;103593.00;4977649;28;20570;-83
2024/01/27 10:32:25;;;;;;;23.83;10.90;;;;;;;3.42;100.00;103583.47;5000114;28;20050;-83
2024/01/27 10:35:11;;;;;;;29.30;10.68;;;;;;;3.55;100.00;103597.31;4986364;28;20030;-84
2024/01/27 10:37:37;;;;;;;20.63;10.52;;;;;;;3.63;100.00;103593.00;4972195;28;20042;-83
2024/01/27 10:40:07;;;;;;;26.50;10.20;;;;;;;3.72;100.00;103591.25;4984592;28;20030;-84
2024/01/27 10:42:34;;;;;;;26.30;10.48;;;;;;;3.82;100.00;103593.84;4969877;28;20019;-82
2024/01/27 10:45:00;;;;;;;30.13;10.15;;;;;;;3.88;100.00;103588.63;4980351;28;20106;-85
2024/01/27 10:47:30;;;;;;;22.60;10.27;;;;;;;3.99;100.00;103594.66;4967848;28;20205;-83
2024/01/27 10:49:57;;;;;;;25.02;10.38;;;;;;;4.05;100.00;103590.31;4992285;28;20069;-80
2024/01/27 10:52:28;;;;;;;24.58;10.15;;;;;;;4.18;100.00;103583.34;4987079;28;20054;-85
2024/01/27 10:54:59;;;;;;;30.48;10.30;;;;;;;4.28;100.00;103595.44;4978129;28;20034;-85
2024/01/27 10:57:26;;;;;;;28.38;10.23;;;;;;;4.35;100.00;103588.47;4983028;28;20022;-84
2024/01/27 10:59:56;;;;;;;19.77;9.45;;;;;;;4.45;100.00;103573.69;4984799;28;20042;-84
2024/01/27 11:02:22;;;;;;;23.83;9.13;;;;;;;4.54;100.00;103571.91;4986036;28;20173;-83